Time;durP1;ratioP1;P1;durP2;ratioP2;P2;SDS_P1;SDS_P2;PMS_P1;PMS_P2;Temp;Humidity;BMP_temperature;BMP_pressure;BME280_temperature;BME280_humidity;BME280_pressure;Samples;Min_cycle;Max_cycle;Signal;HPM_P1;HPM_P2
2023/01/11 00:00:15;;;;;;;5.03;2.00;;;12.20;99.90;;;;;;4956040;28;20723;-84
2023/01/11 00:02:41;;;;;;;8.07;2.30;;;12.20;99.90;;;;;;4957690;28;20238;-86
2023/01/11 00:05:08;;;;;;;5.47;1.80;;;12.30;99.90;;;;;;4958041;28;20243;-85
2023/01/11 00:07:34;;;;;;;5.30;2.00;;;12.20;99.90;;;;;;4959497;28;20173;-85
2023/01/11 00:10:03;;;;;;;7.03;2.00;;;12.30;99.90;;;;;;4961820;28;20191;-86
2023/01/11 00:12:29;;;;;;;5.57;2.20;;;12.30;99.90;;;;;;4966392;28;20180;-86
2023/01/11 00:14:55;;;;;;;5.20;2.00;;;12.20;99.90;;;;;;4957119;28;20259;-86
2023/01/11 00:17:21;;;;;;;4.00;2.30;;;12.20;99.90;;;;;;4957068;28;20207;-84
2023/01/11 00:19:47;;;;;;;6.10;1.90;;;12.20;99.90;;;;;;4958266;28;20204;-86
2023/01/11 00:22:13;;;;;;;6.13;1.80;;;12.20;99.90;;;;;;4957291;28;20235;-85
2023/01/11 00:24:39;;;;;;;6.67;1.90;;;12.30;99.90;;;;;;4958961;28;20184;-83
2023/01/11 00:27:04;;;;;;;5.20;2.17;;;12.30;99.90;;;;;;4967009;28;20184;-84
2023/01/11 00:29:33;;;;;;;7.70;2.00;;;12.30;99.90;;;;;;4967525;28;20188;-85
2023/01/11 00:31:59;;;;;;;5.67;2.30;;;12.30;99.90;;;;;;4958001;28;20168;-85
2023/01/11 00:34:25;;;;;;;4.60;2.33;;;12.30;99.90;;;;;;4957801;28;20655;-85
2023/01/11 00:36:50;;;;;;;5.77;2.17;;;12.30;99.90;;;;;;4958977;28;20195;-86
2023/01/11 00:39:16;;;;;;;6.40;2.20;;;12.30;99.90;;;;;;4961670;28;20224;-85
2023/01/11 00:50:00;;;;;;;4.20;2.23;;;12.20;99.90;;;;;;4969703;29;20156;-85
2023/01/11 00:52:26;;;;;;;6.43;2.60;;;12.10;99.90;;;;;;4975256;28;20165;-85
2023/01/11 00:54:52;;;;;;;3.97;2.00;;;12.30;99.90;;;;;;4977346;28;20199;-85
2023/01/11 00:57:19;;;;;;;6.90;2.50;;;12.20;99.90;;;;;;4972872;28;20247;-85
2023/01/11 00:59:51;;;;;;;5.43;2.20;;;12.10;99.90;;;;;;4976049;28;20203;-84
2023/01/11 01:02:16;;;;;;;5.70;2.50;;;12.20;99.90;;;;;;4963874;28;20274;-85
2023/01/11 01:04:56;;;;;;;4.33;2.33;;;12.10;99.90;;;;;;4958268;28;20217;-85
2023/01/11 01:07:22;;;;;;;5.13;2.13;;;12.20;99.90;;;;;;4956691;28;20168;-85
2023/01/11 01:09:47;;;;;;;4.83;2.10;;;12.10;99.90;;;;;;4956500;28;20231;-86
2023/01/11 01:14:24;;;;;;;4.77;2.23;;;12.10;99.90;;;;;;4956242;28;20185;-88
2023/01/11 01:14:58;;;;;;;4.97;2.13;;;12.10;99.90;;;;;;4957014;29;20196;-85
2023/01/11 01:17:24;;;;;;;4.07;2.00;;;12.10;99.90;;;;;;4959063;28;20176;-84
2023/01/11 01:19:50;;;;;;;6.00;2.10;;;12.10;99.90;;;;;;4961168;28;20211;-84
2023/01/11 01:22:16;;;;;;;4.47;2.20;;;12.10;99.90;;;;;;4957144;28;20184;-86
2023/01/11 01:24:42;;;;;;;5.10;1.80;;;12.10;99.90;;;;;;4958651;28;20259;-86
2023/01/11 01:27:08;;;;;;;4.87;1.90;;;12.10;99.90;;;;;;4957473;28;20176;-85
2023/01/11 01:29:33;;;;;;;3.43;2.03;;;12.20;99.90;;;;;;4956978;28;20184;-87
2023/01/11 01:31:59;;;;;;;5.57;1.90;;;12.20;99.90;;;;;;4956817;28;20189;-85
2023/01/11 01:34:25;;;;;;;3.33;1.87;;;12.20;99.90;;;;;;4956803;28;20177;-85
2023/01/11 01:36:50;;;;;;;3.33;1.80;;;12.20;99.90;;;;;;4958754;28;20259;-84
2023/01/11 01:39:16;;;;;;;3.13;1.77;;;12.20;99.90;;;;;;4956968;28;20242;-84
2023/01/11 01:41:42;;;;;;;3.13;1.63;;;12.30;99.90;;;;;;4956306;28;20200;-84
2023/01/11 01:44:45;;;;;;;2.27;1.43;;;12.20;99.90;;;;;;4960770;28;20239;-85
2023/01/11 01:47:13;;;;;;;3.67;1.43;;;12.20;99.90;;;;;;4956605;28;20208;-85
2023/01/11 01:49:39;;;;;;;3.17;1.37;;;12.30;99.90;;;;;;4957205;28;20176;-87
2023/01/11 01:52:06;;;;;;;2.40;1.23;;;12.50;99.90;;;;;;4957034;28;20184;-86
2023/01/11 01:54:38;;;;;;;3.47;1.10;;;12.40;99.90;;;;;;4958241;28;20168;-85
2023/01/11 01:57:09;;;;;;;3.30;1.40;;;12.40;99.90;;;;;;4956867;28;20210;-84
2023/01/11 01:59:35;;;;;;;4.10;1.30;;;12.50;99.90;;;;;;4956552;28;20212;-86
2023/01/11 02:02:01;;;;;;;2.50;1.10;;;12.50;99.90;;;;;;4957183;28;20192;-83
2023/01/11 02:04:31;;;;;;;2.40;0.93;;;12.60;99.90;;;;;;4957172;28;20260;-84
2023/01/11 02:07:26;;;;;;;4.30;1.10;;;12.60;99.90;;;;;;4955592;28;20188;-84
2023/01/11 02:10:07;;;;;;;3.50;1.50;;;12.70;99.90;;;;;;4947937;28;20355;-84
2023/01/11 02:12:46;;;;;;;2.23;1.30;;;12.70;99.90;;;;;;4955628;28;20173;-85
2023/01/11 02:15:12;;;;;;;1.63;1.00;;;12.70;99.90;;;;;;4958882;28;20628;-83
2023/01/11 02:17:38;;;;;;;3.93;0.93;;;12.70;99.90;;;;;;4956795;28;20180;-83
2023/01/11 02:20:25;;;;;;;3.30;1.10;;;12.70;99.90;;;;;;4958839;28;20177;-85
2023/01/11 02:23:18;;;;;;;2.97;0.87;;;12.70;99.90;;;;;;4956874;28;20267;-85
2023/01/11 02:26:19;;;;;;;3.63;1.20;;;12.70;99.90;;;;;;4957162;28;20180;-84
2023/01/11 02:29:19;;;;;;;2.13;1.07;;;12.80;99.90;;;;;;4947060;28;20253;-85
2023/01/11 02:31:50;;;;;;;3.50;1.27;;;12.70;99.90;;;;;;4973038;28;20224;-83
2023/01/11 02:34:40;;;;;;;2.40;1.30;;;12.80;99.90;;;;;;4962082;28;20593;-86
2023/01/11 02:37:25;;;;;;;4.60;1.47;;;12.60;99.90;;;;;;4933398;29;20275;-86
2023/01/11 02:39:57;;;;;;;3.70;1.23;;;12.60;99.90;;;;;;4958744;28;20227;-86
2023/01/11 02:45:17;;;;;;;2.67;1.00;;;12.50;99.90;;;;;;4961120;29;20183;-85
2023/01/11 02:48:08;;;;;;;1.40;0.93;;;12.50;99.90;;;;;;4969384;28;20177;-87
2023/01/11 02:50:38;;;;;;;3.20;1.03;;;12.60;99.90;;;;;;4964212;28;20247;-85
2023/01/11 02:53:19;;;;;;;2.33;0.87;;;12.50;99.90;;;;;;4964742;28;20173;-84
2023/01/11 02:55:53;;;;;;;3.10;1.07;;;12.60;99.90;;;;;;4948236;29;20207;-86
2023/01/11 02:58:21;;;;;;;1.83;0.80;;;12.60;99.90;;;;;;4968423;28;20235;-86
2023/01/11 03:00:49;;;;;;;1.57;1.00;;;12.70;99.90;;;;;;4975439;28;20168;-85
2023/01/11 03:03:29;;;;;;;1.70;1.00;;;12.50;99.90;;;;;;4973676;28;20208;-85
2023/01/11 03:06:01;;;;;;;3.33;0.93;;;12.50;99.90;;;;;;4977897;28;20168;-83
2023/01/11 03:08:39;;;;;;;3.30;1.10;;;12.60;99.90;;;;;;4977733;28;20204;-84
2023/01/11 03:14:39;;;;;;;1.20;0.80;;;12.50;99.90;;;;;;4970604;29;20164;-86
2023/01/11 03:21:04;;;;;;;1.80;0.80;;;12.60;99.90;;;;;;4976276;28;20207;-85
2023/01/11 03:23:51;;;;;;;0.70;0.60;;;12.60;99.90;;;;;;4960458;28;20191;-85
2023/01/11 03:26:33;;;;;;;1.27;0.80;;;12.50;99.90;;;;;;4957475;28;20243;-85
2023/01/11 03:29:27;;;;;;;2.10;1.00;;;12.60;99.90;;;;;;4957009;28;20180;-86
2023/01/11 03:32:05;;;;;;;2.13;0.93;;;12.60;99.90;;;;;;4958684;28;20168;-85
2023/01/11 03:34:47;;;;;;;2.57;1.10;;;12.60;99.90;;;;;;4955434;28;20637;-85
2023/01/11 03:37:28;;;;;;;3.27;0.90;;;12.50;99.90;;;;;;4965249;28;20160;-82
2023/01/11 03:40:15;;;;;;;1.70;0.90;;;12.50;99.90;;;;;;4974784;28;20219;-85
2023/01/11 03:45:34;;;;;;;2.63;0.93;;;12.50;99.90;;;;;;4957439;29;20184;-85
2023/01/11 03:48:03;;;;;;;3.63;1.10;;;12.60;99.90;;;;;;4955438;28;20178;-85
2023/01/11 03:50:31;;;;;;;3.17;1.53;;;12.50;99.90;;;;;;4955326;28;20586;-87
2023/01/11 03:52:59;;;;;;;1.70;0.80;;;12.50;99.90;;;;;;4959550;28;20180;-84
2023/01/11 03:55:28;;;;;;;1.10;0.73;;;12.70;99.90;;;;;;4975751;28;20179;-85
2023/01/11 03:57:56;;;;;;;2.53;1.10;;;12.70;99.90;;;;;;4976214;28;20236;-82
2023/01/11 04:00:23;;;;;;;1.93;0.73;;;12.60;99.90;;;;;;4978213;28;20224;-86
2023/01/11 04:02:52;;;;;;;2.03;0.90;;;12.60;99.90;;;;;;4960209;28;20340;-84
2023/01/11 04:05:19;;;;;;;2.37;0.80;;;12.60;99.90;;;;;;4957712;28;20180;-85
2023/01/11 04:07:48;;;;;;;2.23;1.10;;;12.60;99.90;;;;;;4956220;28;20201;-86
2023/01/11 04:10:14;;;;;;;3.33;1.00;;;12.60;99.90;;;;;;4955867;28;20515;-87
2023/01/11 04:12:39;;;;;;;1.57;0.90;;;12.60;99.90;;;;;;4955720;28;20187;-86
2023/01/11 04:15:06;;;;;;;2.50;1.00;;;12.80;99.90;;;;;;4955752;28;20653;-86
2023/01/11 04:17:31;;;;;;;3.53;1.00;;;12.70;99.90;;;;;;4955103;28;20199;-86
2023/01/11 04:19:57;;;;;;;1.53;1.07;;;12.70;99.90;;;;;;4954779;28;20231;-86
2023/01/11 04:22:23;;;;;;;3.20;1.30;;;12.70;99.90;;;;;;4955778;28;20537;-85
2023/01/11 04:24:48;;;;;;;1.87;0.93;;;12.80;99.90;;;;;;4955405;28;20628;-85
2023/01/11 04:27:15;;;;;;;1.93;1.00;;;12.70;99.90;;;;;;4955462;28;20706;-85
2023/01/11 04:30:09;;;;;;;1.97;0.70;;;12.90;99.90;;;;;;4955107;28;20577;-84
2023/01/11 04:32:34;;;;;;;2.37;0.80;;;12.70;99.90;;;;;;4954981;28;20259;-85
2023/01/11 04:35:00;;;;;;;1.30;0.73;;;12.70;99.90;;;;;;4954822;28;20172;-85
2023/01/11 04:37:26;;;;;;;1.20;0.70;;;12.60;99.90;;;;;;4953724;28;20173;-85
2023/01/11 04:39:51;;;;;;;1.83;0.53;;;12.60;99.90;;;;;;4954422;28;20735;-83
2023/01/11 04:42:17;;;;;;;1.60;0.73;;;12.50;99.90;;;;;;4954334;28;20200;-85
2023/01/11 04:44:48;;;;;;;0.83;0.70;;;12.50;99.90;;;;;;4956464;28;20228;-85
2023/01/11 04:47:19;;;;;;;0.97;0.70;;;12.60;99.90;;;;;;4959176;28;20704;-87
2023/01/11 04:49:45;;;;;;;1.93;0.80;;;12.70;99.90;;;;;;4967304;28;20176;-85
2023/01/11 04:52:14;;;;;;;3.10;1.10;;;12.70;99.90;;;;;;4962730;28;20195;-84
2023/01/11 04:54:40;;;;;;;1.63;1.00;;;12.70;99.90;;;;;;4962156;28;20180;-84
2023/01/11 04:57:11;;;;;;;2.23;1.10;;;12.80;99.90;;;;;;4959280;28;20173;-85
2023/01/11 04:59:37;;;;;;;2.03;1.00;;;12.70;99.90;;;;;;4959616;28;20212;-86
2023/01/11 05:02:03;;;;;;;2.23;1.00;;;12.80;99.90;;;;;;4960874;28;20188;-85
2023/01/11 05:04:28;;;;;;;1.70;1.00;;;12.70;99.90;;;;;;4979580;28;20227;-84
2023/01/11 05:06:54;;;;;;;2.37;1.10;;;12.80;99.90;;;;;;4969841;28;20583;-85
2023/01/11 05:09:20;;;;;;;1.70;1.10;;;12.80;99.90;;;;;;4959146;28;20248;-84
2023/01/11 05:11:47;;;;;;;2.40;1.10;;;12.80;99.90;;;;;;4960098;28;20267;-85
2023/01/11 05:14:14;;;;;;;1.83;1.07;;;12.70;99.90;;;;;;4960558;28;20187;-85
2023/01/11 05:16:39;;;;;;;3.27;1.00;;;12.70;99.90;;;;;;4958682;28;20264;-85
2023/01/11 05:19:06;;;;;;;7.03;1.40;;;12.60;99.90;;;;;;4960470;28;20227;-84
2023/01/11 05:21:35;;;;;;;4.83;1.30;;;12.50;99.90;;;;;;4957688;28;20622;-84
2023/01/11 05:24:04;;;;;;;2.70;1.10;;;12.60;99.90;;;;;;4958546;28;20177;-86
2023/01/11 05:26:35;;;;;;;6.77;1.20;;;12.60;99.90;;;;;;4960079;28;20536;-86
2023/01/11 05:29:04;;;;;;;5.97;1.60;;;12.40;99.90;;;;;;4970353;28;20183;-84
2023/01/11 05:31:31;;;;;;;7.47;1.90;;;12.60;99.90;;;;;;4978500;28;20171;-87
2023/01/11 05:33:57;;;;;;;7.53;1.70;;;12.50;99.90;;;;;;4979775;28;20223;-86
2023/01/11 05:36:24;;;;;;;8.10;1.70;;;12.50;99.90;;;;;;4978755;28;20271;-86
2023/01/11 05:38:52;;;;;;;8.53;2.07;;;12.60;99.90;;;;;;4977956;28;20216;-85
2023/01/11 05:41:20;;;;;;;5.90;1.87;;;12.50;99.90;;;;;;4977128;28;20223;-84
2023/01/11 05:46:34;;;;;;;9.80;2.43;;;12.60;99.90;;;;;;4979175;28;20186;-83
2023/01/11 05:49:00;;;;;;;7.93;2.27;;;12.50;99.90;;;;;;4977105;28;20184;-85
2023/01/11 05:51:29;;;;;;;10.23;2.30;;;12.50;99.90;;;;;;4978382;28;20183;-85
2023/01/11 05:53:56;;;;;;;7.87;2.50;;;12.40;99.90;;;;;;4993004;28;20243;-86
2023/01/11 05:56:21;;;;;;;10.43;2.37;;;12.40;99.90;;;;;;4992939;28;20268;-85
2023/01/11 05:58:48;;;;;;;13.20;3.10;;;12.40;99.90;;;;;;4982317;28;20297;-85
2023/01/11 06:01:19;;;;;;;7.67;2.40;;;12.50;99.90;;;;;;4984890;28;20172;-85
2023/01/11 06:03:46;;;;;;;12.20;2.83;;;12.30;99.90;;;;;;4988966;28;20198;-87
2023/01/11 06:06:14;;;;;;;9.03;3.00;;;12.40;99.90;;;;;;4983916;28;20182;-85
2023/01/11 06:08:40;;;;;;;14.13;3.20;;;12.40;99.90;;;;;;4981732;28;20172;-87
2023/01/11 06:11:06;;;;;;;12.10;3.27;;;12.30;99.90;;;;;;4990035;28;20159;-84
2023/01/11 06:13:32;;;;;;;13.63;3.10;;;12.30;99.90;;;;;;5001041;28;20195;-85
2023/01/11 06:16:04;;;;;;;14.80;3.47;;;12.30;99.90;;;;;;4986998;28;20703;-85
2023/01/11 06:18:39;;;;;;;12.47;3.30;;;12.30;99.90;;;;;;4984718;28;20625;-86
2023/01/11 06:21:13;;;;;;;14.50;3.87;;;12.30;99.90;;;;;;4983300;28;20268;-84
2023/01/11 06:23:41;;;;;;;12.37;3.50;;;12.20;99.90;;;;;;4984922;28;20636;-85
2023/01/11 06:26:09;;;;;;;13.00;4.20;;;12.20;99.90;;;;;;4982946;28;20180;-85
2023/01/11 06:28:36;;;;;;;9.43;3.20;;;12.10;99.90;;;;;;4985346;28;20687;-87
2023/01/11 06:31:03;;;;;;;13.17;3.43;;;12.00;99.90;;;;;;4996413;28;20187;-85
2023/01/11 06:33:29;;;;;;;12.67;4.00;;;12.00;99.90;;;;;;4983312;28;20548;-87
2023/01/11 06:35:56;;;;;;;17.13;4.27;;;12.10;99.90;;;;;;4982635;28;20180;-87
2023/01/11 06:38:23;;;;;;;12.13;3.50;;;12.00;99.90;;;;;;4980739;28;20204;-87
2023/01/11 06:40:59;;;;;;;15.43;3.70;;;11.90;99.90;;;;;;4987109;28;20214;-86
2023/01/11 06:43:26;;;;;;;9.00;2.90;;;11.90;99.90;;;;;;4982549;28;20243;-85
2023/01/11 06:45:51;;;;;;;13.47;3.60;;;11.80;99.90;;;;;;4997748;28;20191;-86
2023/01/11 06:48:18;;;;;;;13.10;3.50;;;11.80;99.90;;;;;;4983612;28;20235;-86
2023/01/11 06:50:51;;;;;;;13.03;3.47;;;11.90;99.90;;;;;;4980696;28;20671;-86
2023/01/11 06:53:17;;;;;;;13.23;3.60;;;12.00;99.90;;;;;;4983695;28;20179;-85
2023/01/11 06:55:52;;;;;;;17.63;3.70;;;11.80;99.90;;;;;;4992755;28;20184;-87
2023/01/11 06:58:18;;;;;;;14.53;3.60;;;11.90;99.90;;;;;;4998787;28;20191;-86
2023/01/11 07:00:44;;;;;;;13.60;3.77;;;11.80;99.90;;;;;;4996356;28;20171;-85
2023/01/11 07:03:11;;;;;;;14.80;3.80;;;11.80;99.90;;;;;;4989577;28;20214;-88
2023/01/11 07:05:38;;;;;;;12.33;3.53;;;11.70;99.90;;;;;;4993830;28;20180;-85
2023/01/11 07:08:41;;;;;;;14.97;3.47;;;11.70;99.90;;;;;;4994251;28;20191;-86
2023/01/11 07:11:07;;;;;;;12.17;3.43;;;11.50;99.90;;;;;;4978297;28;20277;-85
2023/01/11 07:13:33;;;;;;;14.87;4.37;;;11.50;99.90;;;;;;4976494;28;20683;-85
2023/01/11 07:15:59;;;;;;;12.90;3.33;;;11.50;99.60;;;;;;4977551;28;20153;-86
2023/01/11 07:18:24;;;;;;;14.03;3.30;;;11.50;99.90;;;;;;4976773;28;20690;-86
2023/01/11 07:20:50;;;;;;;17.83;3.97;;;11.60;99.20;;;;;;4975396;28;20258;-86
2023/01/11 07:23:16;;;;;;;16.03;4.20;;;11.40;99.50;;;;;;4977525;28;20175;-85
2023/01/11 07:25:43;;;;;;;14.63;3.60;;;11.40;99.90;;;;;;4990610;28;20207;-85
2023/01/11 07:28:10;;;;;;;9.87;3.43;;;11.40;99.20;;;;;;4963409;28;20181;-86
2023/01/11 07:30:39;;;;;;;13.93;2.97;;;11.40;99.00;;;;;;4970429;28;20222;-86
2023/01/11 07:33:06;;;;;;;10.93;3.43;;;11.20;98.30;;;;;;4959308;28;20287;-88
2023/01/11 07:35:32;;;;;;;16.00;3.87;;;11.20;98.80;;;;;;4972678;28;20183;-86
2023/01/11 07:37:57;;;;;;;16.23;3.50;;;11.20;98.60;;;;;;4977259;28;20187;-86
2023/01/11 07:40:23;;;;;;;16.07;4.30;;;11.20;99.10;;;;;;4977556;28;20200;-83
2023/01/11 07:43:10;;;;;;;20.00;4.20;;;11.20;98.90;;;;;;4976324;28;20184;-86
2023/01/11 07:45:38;;;;;;;14.80;2.90;;;11.10;99.00;;;;;;4973720;28;20218;-85
2023/01/11 07:48:08;;;;;;;12.93;3.70;;;11.10;99.50;;;;;;4962703;28;20624;-87
2023/01/11 07:50:34;;;;;;;14.57;3.93;;;11.00;99.60;;;;;;4962278;28;20275;-84
2023/01/11 07:53:00;;;;;;;11.90;3.50;;;11.10;99.40;;;;;;4959072;28;20523;-84
2023/01/11 07:55:26;;;;;;;18.73;3.73;;;11.00;99.90;;;;;;4978297;28;20266;-84
2023/01/11 07:57:54;;;;;;;14.50;3.60;;;10.90;99.90;;;;;;4984744;28;20160;-84
2023/01/11 08:00:21;;;;;;;16.87;3.70;;;11.00;99.90;;;;;;4995704;28;20176;-84
2023/01/11 08:02:51;;;;;;;13.67;3.60;;;10.90;99.90;;;;;;4980924;28;20184;-85
2023/01/11 08:05:19;;;;;;;19.80;3.90;;;11.00;99.90;;;;;;4976431;28;20226;-84
2023/01/11 08:07:45;;;;;;;16.20;3.83;;;11.10;99.70;;;;;;4988498;28;20256;-82
2023/01/11 08:10:14;;;;;;;15.13;4.57;;;10.90;99.70;;;;;;4984266;28;20196;-81
2023/01/11 08:15:31;;;;;;;14.33;3.30;;;10.90;99.90;;;;;;4988392;28;20192;-84
2023/01/11 08:17:58;;;;;;;19.47;4.30;;;10.90;99.90;;;;;;4974338;28;20187;-83
2023/01/11 08:20:25;;;;;;;21.63;4.10;;;10.90;99.90;;;;;;4974314;28;20256;-85
2023/01/11 08:22:52;;;;;;;17.67;3.53;;;10.90;99.60;;;;;;5003463;28;20631;-84
2023/01/11 08:25:18;;;;;;;15.83;3.93;;;10.90;99.50;;;;;;4998453;28;20588;-84
2023/01/11 08:27:44;;;;;;;16.23;4.13;;;10.80;99.90;;;;;;4969089;28;20182;-86
2023/01/11 08:30:11;;;;;;;15.20;3.73;;;10.80;99.90;;;;;;4957882;28;20184;-82
2023/01/11 08:32:36;;;;;;;15.67;3.70;;;10.70;99.90;;;;;;4959275;28;20180;-87
2023/01/11 08:35:03;;;;;;;19.40;3.80;;;10.70;99.90;;;;;;4958790;29;20204;-84
2023/01/11 08:37:29;;;;;;;13.77;3.53;;;10.70;99.90;;;;;;4963700;28;20239;-87
2023/01/11 08:40:24;;;;;;;15.07;4.07;;;10.70;99.90;;;;;;4960993;29;20216;-92
2023/01/11 08:42:56;;;;;;;15.17;4.27;;;10.70;99.90;;;;;;4962505;28;20235;-93
2023/01/11 08:45:22;;;;;;;16.40;4.23;;;10.70;99.90;;;;;;4960350;28;20188;-88
2023/01/11 08:47:50;;;;;;;19.77;3.83;;;10.80;99.90;;;;;;4977542;28;20232;-89
2023/01/11 08:50:16;;;;;;;20.33;4.73;;;10.50;99.90;;;;;;4989853;28;20248;-91
2023/01/11 08:52:43;;;;;;;19.87;4.93;;;10.60;99.90;;;;;;4996935;28;20243;-90
2023/01/11 08:55:09;;;;;;;14.03;4.27;;;10.60;99.90;;;;;;4985231;28;20187;-89
2023/01/11 08:57:36;;;;;;;18.07;4.43;;;10.70;99.90;;;;;;4979275;28;20338;-88
2023/01/11 09:00:06;;;;;;;21.50;4.83;;;10.60;99.90;;;;;;4966344;28;20218;-92
2023/01/11 09:02:33;;;;;;;11.37;3.57;;;10.70;99.90;;;;;;4975547;28;20184;-93
2023/01/11 09:04:59;;;;;;;21.93;4.90;;;10.60;99.90;;;;;;4962381;28;20794;-93
2023/01/11 09:07:25;;;;;;;14.33;3.80;;;10.80;99.90;;;;;;4976042;28;20176;-91
2023/01/11 09:09:51;;;;;;;19.50;3.97;;;10.70;99.90;;;;;;4998055;28;20199;-88
2023/01/11 09:12:18;;;;;;;18.47;4.40;;;10.70;99.90;;;;;;4980641;28;20176;-90
2023/01/11 09:14:45;;;;;;;17.87;3.87;;;10.70;99.90;;;;;;4985357;28;20279;-86
2023/01/11 09:17:50;;;;;;;15.13;3.93;;;10.70;99.90;;;;;;4991679;28;20187;-89
2023/01/11 09:20:19;;;;;;;20.80;4.73;;;10.70;99.90;;;;;;4990911;28;20274;-86
2023/01/11 09:22:51;;;;;;;17.33;3.83;;;10.80;99.90;;;;;;4989493;28;20153;-92
2023/01/11 09:25:22;;;;;;;16.13;3.73;;;10.70;99.90;;;;;;4995809;28;20203;-91
2023/01/11 09:27:50;;;;;;;18.27;4.60;;;10.80;99.90;;;;;;4974116;28;20192;-92
2023/01/11 09:30:22;;;;;;;16.70;4.73;;;10.90;99.90;;;;;;4965523;28;20169;-91
2023/01/11 09:32:56;;;;;;;20.93;4.30;;;10.80;99.90;;;;;;4981741;28;20199;-90
2023/01/11 09:35:22;;;;;;;16.77;4.47;;;10.90;99.90;;;;;;4967014;28;20206;-87
2023/01/11 09:37:55;;;;;;;19.17;4.40;;;10.90;99.90;;;;;;4994850;28;20183;-90
2023/01/11 09:44:08;;;;;;;16.67;4.13;;;11.00;99.90;;;;;;4986818;28;20182;-89
2023/01/11 09:46:40;;;;;;;22.47;4.53;;;10.90;99.60;;;;;;4983594;28;20195;-87
2023/01/11 09:49:19;;;;;;;19.33;4.07;;;10.90;99.90;;;;;;4982120;28;20192;-90
2023/01/11 09:51:46;;;;;;;16.60;3.83;;;10.90;99.90;;;;;;4972969;28;20179;-90
2023/01/11 09:54:19;;;;;;;20.43;5.10;;;11.00;99.90;;;;;;4976439;28;20207;-90
2023/01/11 09:56:53;;;;;;;21.03;4.37;;;11.10;99.90;;;;;;4976270;28;20184;-85
2023/01/11 09:59:45;;;;;;;19.87;4.37;;;11.10;99.70;;;;;;4987727;28;20210;-85
2023/01/11 10:03:06;;;;;;;18.13;4.30;;;11.40;99.20;;;;;;4985729;28;20607;-86
2023/01/11 10:05:39;;;;;;;14.57;3.67;;;11.30;96.70;;;;;;4949472;29;20672;-87
2023/01/11 10:08:24;;;;;;;19.57;4.10;;;11.30;95.30;;;;;;4972698;28;20771;-86
2023/01/11 10:11:19;;;;;;;19.10;4.60;;;11.10;95.50;;;;;;4975414;28;20195;-85
2023/01/11 10:14:12;;;;;;;19.37;3.97;;;11.10;96.20;;;;;;4979437;28;20175;-86
2023/01/11 10:16:55;;;;;;;14.17;4.00;;;11.10;95.70;;;;;;4980124;28;20180;-86
2023/01/11 10:19:34;;;;;;;21.43;5.37;;;11.10;95.50;;;;;;4981979;28;20302;-86
2023/01/11 10:22:26;;;;;;;19.40;5.03;;;11.10;95.80;;;;;;4993579;28;20238;-85
2023/01/11 10:24:57;;;;;;;17.03;4.57;;;11.10;95.90;;;;;;4998936;28;20184;-84
2023/01/11 10:27:46;;;;;;;16.87;5.07;;;11.20;94.00;;;;;;4991373;28;20614;-86
2023/01/11 10:42:21;;;;;;;18.37;4.60;;;11.40;88.10;;;;;;4982732;28;20210;-86
2023/01/11 10:44:56;;;;;;;20.97;4.80;;;11.40;90.60;;;;;;4973137;28;20184;-86
2023/01/11 10:47:27;;;;;;;22.53;5.30;;;11.40;91.00;;;;;;4979016;28;20253;-87
2023/01/11 10:50:03;;;;;;;17.43;4.40;;;11.50;90.10;;;;;;4978518;28;20597;-86
2023/01/11 10:52:29;;;;;;;23.40;4.93;;;11.70;88.10;;;;;;4980127;28;20238;-88
2023/01/11 10:54:57;;;;;;;17.03;5.00;;;11.70;85.50;;;;;;4986031;28;20187;-86
2023/01/11 10:57:47;;;;;;;25.20;4.67;;;11.80;82.80;;;;;;4983187;28;20583;-88
2023/01/11 11:00:30;;;;;;;17.10;4.20;;;11.70;81.60;;;;;;4979501;28;20219;-88
2023/01/11 11:03:22;;;;;;;17.07;4.63;;;11.80;80.90;;;;;;4979542;28;20219;-88
2023/01/11 11:06:08;;;;;;;20.30;4.60;;;11.90;82.10;;;;;;4980613;28;20168;-86
2023/01/11 11:08:55;;;;;;;17.67;4.43;;;11.80;80.50;;;;;;4975722;28;20218;-88
2023/01/11 11:11:36;;;;;;;15.33;4.73;;;11.80;77.50;;;;;;4976095;28;20212;-87
2023/01/11 11:14:13;;;;;;;17.13;4.17;;;11.90;78.50;;;;;;4969928;28;20251;-87
2023/01/11 11:16:57;;;;;;;18.23;4.60;;;11.90;76.80;;;;;;4960887;28;20172;-87
2023/01/11 11:19:32;;;;;;;15.60;4.13;;;11.80;76.20;;;;;;4968846;28;20226;-87
2023/01/11 11:21:59;;;;;;;20.23;4.17;;;11.80;73.90;;;;;;4979382;28;20202;-87
2023/01/11 11:28:05;;;;;;;17.87;4.80;;;11.90;73.00;;;;;;4975115;29;20176;-86
2023/01/11 11:30:38;;;;;;;23.17;5.23;;;12.00;73.00;;;;;;4973489;28;20243;-86
2023/01/11 11:33:17;;;;;;;18.67;4.47;;;12.00;71.60;;;;;;4970944;28;20196;-87
2023/01/11 11:35:45;;;;;;;17.37;4.40;;;11.90;72.60;;;;;;4959287;28;20172;-87
2023/01/11 11:38:26;;;;;;;20.47;5.60;;;11.90;74.50;;;;;;4958859;28;20187;-86
2023/01/11 11:41:03;;;;;;;20.23;5.00;;;11.90;71.60;;;;;;4960190;28;20203;-85
2023/01/11 11:43:31;;;;;;;21.87;5.40;;;12.00;71.40;;;;;;4972051;28;20169;-87
2023/01/11 11:46:00;;;;;;;20.77;4.63;;;12.00;69.30;;;;;;4958698;28;20184;-87
2023/01/11 11:48:31;;;;;;;16.63;4.33;;;11.80;69.70;;;;;;4959229;28;20274;-87
2023/01/11 11:51:03;;;;;;;25.73;5.37;;;11.70;74.30;;;;;;4960828;29;20176;-87
2023/01/11 11:53:45;;;;;;;25.17;5.03;;;11.80;74.20;;;;;;4960369;28;20184;-86
2023/01/11 11:56:31;;;;;;;22.13;4.53;;;11.80;73.90;;;;;;4959875;29;20179;-87
2023/01/11 11:59:03;;;;;;;20.03;4.27;;;11.90;74.70;;;;;;4959613;29;20296;-87
2023/01/11 12:01:50;;;;;;;22.47;4.83;;;11.90;73.00;;;;;;4959565;28;20656;-86
2023/01/11 12:04:19;;;;;;;19.27;4.80;;;11.90;74.10;;;;;;4960209;29;20180;-87
2023/01/11 12:07:06;;;;;;;23.07;4.60;;;12.10;70.60;;;;;;4962724;28;20182;-88
2023/01/11 12:09:34;;;;;;;22.20;4.63;;;12.10;67.70;;;;;;4958133;28;20172;-86
2023/01/11 12:12:03;;;;;;;18.73;4.57;;;12.10;63.80;;;;;;4959213;28;20216;-87
2023/01/11 12:14:34;;;;;;;17.27;4.83;;;12.10;64.20;;;;;;4944906;29;20267;-87
2023/01/11 12:17:21;;;;;;;15.43;4.77;;;12.00;59.40;;;;;;4956485;28;20211;-88
2023/01/11 12:19:49;;;;;;;20.27;4.20;;;12.00;61.70;;;;;;4955976;28;20212;-87
2023/01/11 12:22:20;;;;;;;18.90;4.20;;;12.00;66.10;;;;;;4956969;29;20200;-86
2023/01/11 12:25:02;;;;;;;18.70;4.60;;;11.90;62.00;;;;;;4958508;28;20283;-87
2023/01/11 12:27:44;;;;;;;21.20;4.73;;;11.90;62.50;;;;;;4960390;29;20243;-87
2023/01/11 12:30:32;;;;;;;22.93;5.03;;;12.00;64.70;;;;;;4968619;28;20176;-85
2023/01/11 12:33:38;;;;;;;17.27;4.17;;;12.00;64.60;;;;;;4977942;28;20187;-87
2023/01/11 12:36:11;;;;;;;22.23;4.93;;;11.90;59.70;;;;;;4978058;28;20199;-87
2023/01/11 12:39:01;;;;;;;20.10;4.87;;;12.10;60.60;;;;;;4977728;28;20219;-87
2023/01/11 12:41:49;;;;;;;27.83;5.20;;;12.10;59.70;;;;;;4978724;28;20212;-87
2023/01/11 12:44:55;;;;;;;22.07;5.30;;;12.10;60.90;;;;;;4994264;28;20187;-88
2023/01/11 12:48:08;;;;;;;16.97;4.37;;;12.10;60.70;;;;;;4994869;28;20243;-87
2023/01/11 12:51:13;;;;;;;16.40;4.57;;;12.00;61.70;;;;;;4984290;28;20215;-86
2023/01/11 12:54:04;;;;;;;15.87;4.57;;;12.00;63.10;;;;;;4972929;28;20184;-88
2023/01/11 12:57:04;;;;;;;18.20;3.93;;;12.00;64.00;;;;;;4974139;28;20176;-88
2023/01/11 12:59:33;;;;;;;15.10;3.80;;;12.10;60.70;;;;;;4974791;28;20199;-88
2023/01/11 13:02:04;;;;;;;20.67;5.27;;;11.90;62.00;;;;;;4974891;28;20282;-84
2023/01/11 13:04:48;;;;;;;14.47;3.80;;;12.00;60.90;;;;;;4973711;28;20191;-88
2023/01/11 13:07:36;;;;;;;21.10;4.07;;;12.10;54.90;;;;;;4973194;28;20267;-88
2023/01/11 13:10:15;;;;;;;15.07;4.03;;;12.00;56.30;;;;;;4975535;28;20173;-88
2023/01/11 13:12:44;;;;;;;14.13;3.90;;;12.00;55.70;;;;;;4961605;28;20180;-87
2023/01/11 13:15:41;;;;;;;14.73;3.70;;;11.90;56.20;;;;;;4978512;28;20176;-87
2023/01/11 13:18:17;;;;;;;13.40;3.03;;;11.90;54.40;;;;;;4959959;29;20180;-89
2023/01/11 13:21:11;;;;;;;16.77;3.90;;;11.70;47.90;;;;;;4985593;28;20180;-87
2023/01/11 13:23:53;;;;;;;13.83;3.23;;;11.70;28.10;;;;;;4967918;28;20173;-88
2023/01/11 13:26:32;;;;;;;9.93;3.50;;;11.60;34.80;;;;;;4964889;28;20191;-88
2023/01/11 13:29:34;;;;;;;14.43;3.50;;;11.60;38.70;;;;;;4969094;28;20168;-88
2023/01/11 13:32:11;;;;;;;15.27;4.03;;;11.70;39.10;;;;;;4971155;28;20188;-89
2023/01/11 13:34:53;;;;;;;15.53;3.90;;;11.70;38.50;;;;;;4965692;28;20195;-87
2023/01/11 13:37:53;;;;;;;16.70;5.07;;;11.60;38.50;;;;;;5007660;28;20211;-86
2023/01/11 13:40:31;;;;;;;12.93;3.30;;;11.60;44.60;;;;;;4997937;28;20211;-86
2023/01/11 13:43:11;;;;;;;11.50;3.20;;;11.60;46.90;;;;;;4999081;28;20175;-85
2023/01/11 13:46:02;;;;;;;12.73;2.70;;;11.50;49.10;;;;;;4993317;28;20186;-88
2023/01/11 13:48:59;;;;;;;11.10;2.60;;;11.40;46.40;;;;;;4983727;28;20172;-88
2023/01/11 13:51:38;;;;;;;11.40;2.73;;;11.30;49.40;;;;;;4979578;28;20244;-84
2023/01/11 13:54:11;;;;;;;8.43;2.27;;;11.20;53.20;;;;;;4979864;28;20168;-85
2023/01/11 13:56:54;;;;;;;8.43;2.80;;;11.20;54.90;;;;;;4978703;28;20183;-85